sensor_id;sensor_type;location;lat;lon;timestamp;P1;durP1;ratioP1;P2;durP2;ratioP2
21000;SDS011;10658;50.920;12.238;2023-05-27T00:00:18;9.40;;;2.83;;
21000;SDS011;10658;50.920;12.238;2023-05-27T00:04:19;5.55;;;2.60;;
21000;SDS011;10658;50.920;12.238;2023-05-27T00:08:19;5.53;;;2.17;;
21000;SDS011;10658;50.920;12.238;2023-05-27T00:12:20;4.60;;;2.95;;
21000;SDS011;10658;50.920;12.238;2023-05-27T00:16:21;2.75;;;1.98;;
21000;SDS011;10658;50.920;12.238;2023-05-27T00:20:22;4.82;;;2.38;;
21000;SDS011;10658;50.920;12.238;2023-05-27T00:24:22;4.60;;;2.80;;
21000;SDS011;10658;50.920;12.238;2023-05-27T00:28:23;7.25;;;2.67;;
21000;SDS011;10658;50.920;12.238;2023-05-27T00:32:24;4.63;;;2.55;;
21000;SDS011;10658;50.920;12.238;2023-05-27T00:36:25;5.20;;;2.55;;
21000;SDS011;10658;50.920;12.238;2023-05-27T00:40:26;5.20;;;2.65;;
21000;SDS011;10658;50.920;12.238;2023-05-27T00:44:29;7.88;;;2.92;;
21000;SDS011;10658;50.920;12.238;2023-05-27T00:48:29;3.47;;;2.40;;
21000;SDS011;10658;50.920;12.238;2023-05-27T00:52:30;3.97;;;2.25;;
21000;SDS011;10658;50.920;12.238;2023-05-27T00:56:32;8.98;;;2.88;;
21000;SDS011;10658;50.920;12.238;2023-05-27T01:00:32;5.60;;;2.63;;
21000;SDS011;10658;50.920;12.238;2023-05-27T01:04:33;4.55;;;2.70;;
21000;SDS011;10658;50.920;12.238;2023-05-27T01:08:37;15.93;;;2.95;;
21000;SDS011;10658;50.920;12.238;2023-05-27T01:12:44;6.68;;;3.03;;
21000;SDS011;10658;50.920;12.238;2023-05-27T01:16:51;3.15;;;2.50;;
21000;SDS011;10658;50.920;12.238;2023-05-27T01:21:00;5.53;;;2.63;;
21000;SDS011;10658;50.920;12.238;2023-05-27T01:25:05;4.47;;;2.58;;
21000;SDS011;10658;50.920;12.238;2023-05-27T01:29:08;4.03;;;2.35;;
21000;SDS011;10658;50.920;12.238;2023-05-27T01:33:09;6.22;;;3.08;;
21000;SDS011;10658;50.920;12.238;2023-05-27T01:37:20;6.43;;;2.25;;
21000;SDS011;10658;50.920;12.238;2023-05-27T01:41:23;3.10;;;2.30;;
21000;SDS011;10658;50.920;12.238;2023-05-27T01:45:25;4.85;;;2.35;;
21000;SDS011;10658;50.920;12.238;2023-05-27T01:49:26;5.93;;;2.75;;
21000;SDS011;10658;50.920;12.238;2023-05-27T01:53:27;6.20;;;2.72;;
21000;SDS011;10658;50.920;12.238;2023-05-27T01:57:28;5.80;;;2.17;;
21000;SDS011;10658;50.920;12.238;2023-05-27T02:01:29;4.90;;;1.95;;
21000;SDS011;10658;50.920;12.238;2023-05-27T02:05:31;5.15;;;2.70;;
21000;SDS011;10658;50.920;12.238;2023-05-27T02:09:32;3.60;;;2.42;;
21000;SDS011;10658;50.920;12.238;2023-05-27T02:13:33;3.97;;;2.35;;
21000;SDS011;10658;50.920;12.238;2023-05-27T02:17:34;2.50;;;1.90;;
21000;SDS011;10658;50.920;12.238;2023-05-27T02:21:35;5.75;;;2.50;;
21000;SDS011;10658;50.920;12.238;2023-05-27T02:25:36;5.10;;;2.58;;
21000;SDS011;10658;50.920;12.238;2023-05-27T02:29:39;3.97;;;1.98;;
21000;SDS011;10658;50.920;12.238;2023-05-27T02:33:40;5.82;;;2.17;;
21000;SDS011;10658;50.920;12.238;2023-05-27T02:37:41;3.25;;;2.20;;
21000;SDS011;10658;50.920;12.238;2023-05-27T02:41:42;4.70;;;2.53;;
21000;SDS011;10658;50.920;12.238;2023-05-27T02:45:44;5.05;;;2.42;;
21000;SDS011;10658;50.920;12.238;2023-05-27T02:49:45;4.35;;;2.20;;
21000;SDS011;10658;50.920;12.238;2023-05-27T02:53:46;2.55;;;1.77;;
21000;SDS011;10658;50.920;12.238;2023-05-27T02:57:47;3.60;;;2.00;;
21000;SDS011;10658;50.920;12.238;2023-05-27T03:01:47;2.88;;;2.28;;
21000;SDS011;10658;50.920;12.238;2023-05-27T03:05:50;2.22;;;1.80;;
21000;SDS011;10658;50.920;12.238;2023-05-27T03:09:50;5.82;;;2.45;;
21000;SDS011;10658;50.920;12.238;2023-05-27T03:13:51;3.80;;;2.08;;
21000;SDS011;10658;50.920;12.238;2023-05-27T03:17:52;4.95;;;2.22;;
21000;SDS011;10658;50.920;12.238;2023-05-27T03:21:52;4.10;;;2.35;;
21000;SDS011;10658;50.920;12.238;2023-05-27T03:25:53;4.80;;;2.50;;
21000;SDS011;10658;50.920;12.238;2023-05-27T03:29:55;4.13;;;2.47;;
21000;SDS011;10658;50.920;12.238;2023-05-27T03:33:55;5.13;;;2.90;;
21000;SDS011;10658;50.920;12.238;2023-05-27T03:37:56;3.65;;;2.88;;
21000;SDS011;10658;50.920;12.238;2023-05-27T03:41:57;4.63;;;2.70;;
21000;SDS011;10658;50.920;12.238;2023-05-27T03:45:58;6.20;;;2.60;;
21000;SDS011;10658;50.920;12.238;2023-05-27T03:50:00;5.10;;;2.60;;
21000;SDS011;10658;50.920;12.238;2023-05-27T03:54:01;3.88;;;2.10;;
21000;SDS011;10658;50.920;12.238;2023-05-27T03:58:04;7.70;;;3.03;;
21000;SDS011;10658;50.920;12.238;2023-05-27T04:02:06;3.80;;;2.25;;
21000;SDS011;10658;50.920;12.238;2023-05-27T04:06:08;4.40;;;2.50;;
21000;SDS011;10658;50.920;12.238;2023-05-27T04:10:08;3.63;;;2.22;;
21000;SDS011;10658;50.920;12.238;2023-05-27T04:14:10;5.65;;;3.00;;
21000;SDS011;10658;50.920;12.238;2023-05-27T04:18:11;5.85;;;2.83;;
21000;SDS011;10658;50.920;12.238;2023-05-27T04:22:12;5.40;;;2.50;;
21000;SDS011;10658;50.920;12.238;2023-05-27T04:26:13;5.00;;;2.80;;
21000;SDS011;10658;50.920;12.238;2023-05-27T04:30:21;4.93;;;2.80;;
21000;SDS011;10658;50.920;12.238;2023-05-27T04:34:22;3.90;;;2.50;;
21000;SDS011;10658;50.920;12.238;2023-05-27T04:38:23;5.53;;;2.58;;
21000;SDS011;10658;50.920;12.238;2023-05-27T04:42:29;4.70;;;3.00;;
21000;SDS011;10658;50.920;12.238;2023-05-27T04:46:34;5.22;;;2.70;;
21000;SDS011;10658;50.920;12.238;2023-05-27T04:50:34;6.85;;;3.20;;
21000;SDS011;10658;50.920;12.238;2023-05-27T04:54:35;8.45;;;3.20;;
21000;SDS011;10658;50.920;12.238;2023-05-27T04:58:43;3.72;;;2.97;;
21000;SDS011;10658;50.920;12.238;2023-05-27T05:02:47;7.05;;;3.72;;
21000;SDS011;10658;50.920;12.238;2023-05-27T05:06:48;7.43;;;4.60;;
21000;SDS011;10658;50.920;12.238;2023-05-27T05:10:51;10.35;;;4.38;;
21000;SDS011;10658;50.920;12.238;2023-05-27T05:14:52;13.20;;;5.72;;
21000;SDS011;10658;50.920;12.238;2023-05-27T05:18:54;14.73;;;5.35;;
21000;SDS011;10658;50.920;12.238;2023-05-27T05:22:56;11.20;;;5.57;;
21000;SDS011;10658;50.920;12.238;2023-05-27T05:26:58;8.68;;;4.32;;
21000;SDS011;10658;50.920;12.238;2023-05-27T05:31:02;16.27;;;5.47;;
21000;SDS011;10658;50.920;12.238;2023-05-27T05:35:03;11.40;;;5.55;;
21000;SDS011;10658;50.920;12.238;2023-05-27T05:39:05;12.30;;;5.63;;
21000;SDS011;10658;50.920;12.238;2023-05-27T05:43:08;12.45;;;5.85;;
21000;SDS011;10658;50.920;12.238;2023-05-27T05:47:09;11.82;;;5.03;;
21000;SDS011;10658;50.920;12.238;2023-05-27T05:51:10;12.73;;;4.88;;
21000;SDS011;10658;50.920;12.238;2023-05-27T05:55:11;10.98;;;4.68;;
21000;SDS011;10658;50.920;12.238;2023-05-27T05:59:12;14.77;;;4.72;;
21000;SDS011;10658;50.920;12.238;2023-05-27T06:03:13;13.10;;;4.90;;
21000;SDS011;10658;50.920;12.238;2023-05-27T06:07:19;10.75;;;4.50;;
21000;SDS011;10658;50.920;12.238;2023-05-27T06:11:26;10.02;;;4.68;;
21000;SDS011;10658;50.920;12.238;2023-05-27T06:15:27;8.45;;;4.18;;
21000;SDS011;10658;50.920;12.238;2023-05-27T06:19:28;9.27;;;4.38;;
21000;SDS011;10658;50.920;12.238;2023-05-27T06:23:29;10.70;;;5.20;;
21000;SDS011;10658;50.920;12.238;2023-05-27T06:27:36;14.63;;;5.47;;
21000;SDS011;10658;50.920;12.238;2023-05-27T06:31:37;15.55;;;5.00;;
21000;SDS011;10658;50.920;12.238;2023-05-27T06:35:38;10.55;;;5.00;;
21000;SDS011;10658;50.920;12.238;2023-05-27T06:39:38;16.02;;;5.43;;
21000;SDS011;10658;50.920;12.238;2023-05-27T06:43:39;10.00;;;5.03;;
21000;SDS011;10658;50.920;12.238;2023-05-27T06:47:59;10.68;;;3.92;;
21000;SDS011;10658;50.920;12.238;2023-05-27T06:52:01;11.60;;;3.78;;
21000;SDS011;10658;50.920;12.238;2023-05-27T06:56:03;7.68;;;3.80;;
21000;SDS011;10658;50.920;12.238;2023-05-27T07:00:23;7.50;;;4.30;;
21000;SDS011;10658;50.920;12.238;2023-05-27T07:04:43;8.82;;;4.15;;
21000;SDS011;10658;50.920;12.238;2023-05-27T07:08:45;10.38;;;4.25;;
21000;SDS011;10658;50.920;12.238;2023-05-27T07:12:55;10.45;;;3.90;;
21000;SDS011;10658;50.920;12.238;2023-05-27T07:17:12;8.55;;;3.13;;
21000;SDS011;10658;50.920;12.238;2023-05-27T07:21:13;11.38;;;4.32;;
21000;SDS011;10658;50.920;12.238;2023-05-27T07:25:14;8.90;;;3.50;;
21000;SDS011;10658;50.920;12.238;2023-05-27T07:29:15;6.68;;;3.53;;
21000;SDS011;10658;50.920;12.238;2023-05-27T07:33:25;9.68;;;3.17;;
21000;SDS011;10658;50.920;12.238;2023-05-27T07:37:26;6.70;;;3.28;;
21000;SDS011;10658;50.920;12.238;2023-05-27T07:41:28;15.20;;;4.30;;
21000;SDS011;10658;50.920;12.238;2023-05-27T07:45:30;9.40;;;3.53;;
21000;SDS011;10658;50.920;12.238;2023-05-27T07:49:31;8.10;;;3.33;;
21000;SDS011;10658;50.920;12.238;2023-05-27T07:53:50;15.27;;;3.58;;
21000;SDS011;10658;50.920;12.238;2023-05-27T07:57:54;10.43;;;4.28;;
21000;SDS011;10658;50.920;12.238;2023-05-27T08:01:58;9.00;;;4.07;;
21000;SDS011;10658;50.920;12.238;2023-05-27T08:05:59;8.65;;;4.18;;
21000;SDS011;10658;50.920;12.238;2023-05-27T08:10:18;9.30;;;3.83;;
21000;SDS011;10658;50.920;12.238;2023-05-27T08:14:34;10.23;;;3.35;;
21000;SDS011;10658;50.920;12.238;2023-05-27T08:18:53;8.93;;;3.25;;
21000;SDS011;10658;50.920;12.238;2023-05-27T08:23:03;9.77;;;4.05;;
21000;SDS011;10658;50.920;12.238;2023-05-27T08:27:41;8.00;;;3.97;;
21000;SDS011;10658;50.920;12.238;2023-05-27T08:31:56;8.50;;;3.47;;
21000;SDS011;10658;50.920;12.238;2023-05-27T08:35:57;10.75;;;3.58;;
21000;SDS011;10658;50.920;12.238;2023-05-27T08:39:58;9.45;;;3.50;;
21000;SDS011;10658;50.920;12.238;2023-05-27T08:44:17;9.15;;;2.88;;
21000;SDS011;10658;50.920;12.238;2023-05-27T08:48:19;8.48;;;3.40;;
21000;SDS011;10658;50.920;12.238;2023-05-27T08:52:21;8.70;;;4.00;;
21000;SDS011;10658;50.920;12.238;2023-05-27T08:56:23;13.15;;;3.30;;
21000;SDS011;10658;50.920;12.238;2023-05-27T09:00:28;9.20;;;2.95;;
21000;SDS011;10658;50.920;12.238;2023-05-27T09:04:34;7.55;;;3.20;;
21000;SDS011;10658;50.920;12.238;2023-05-27T09:08:36;10.10;;;3.20;;
21000;SDS011;10658;50.920;12.238;2023-05-27T09:12:37;5.93;;;2.83;;
21000;SDS011;10658;50.920;12.238;2023-05-27T09:16:42;6.13;;;3.10;;
21000;SDS011;10658;50.920;12.238;2023-05-27T09:20:43;5.72;;;2.47;;
21000;SDS011;10658;50.920;12.238;2023-05-27T09:24:43;12.25;;;4.03;;
21000;SDS011;10658;50.920;12.238;2023-05-27T09:28:44;8.65;;;3.10;;
21000;SDS011;10658;50.920;12.238;2023-05-27T09:32:45;8.07;;;3.17;;
21000;SDS011;10658;50.920;12.238;2023-05-27T09:36:48;9.27;;;2.83;;
21000;SDS011;10658;50.920;12.238;2023-05-27T09:40:50;7.45;;;2.63;;
21000;SDS011;10658;50.920;12.238;2023-05-27T09:44:50;6.60;;;2.53;;
21000;SDS011;10658;50.920;12.238;2023-05-27T09:48:54;7.30;;;2.67;;
21000;SDS011;10658;50.920;12.238;2023-05-27T09:52:57;5.53;;;3.38;;
21000;SDS011;10658;50.920;12.238;2023-05-27T09:57:01;7.03;;;2.40;;
21000;SDS011;10658;50.920;12.238;2023-05-27T10:01:05;7.95;;;2.75;;
21000;SDS011;10658;50.920;12.238;2023-05-27T10:05:07;4.38;;;2.13;;
21000;SDS011;10658;50.920;12.238;2023-05-27T10:09:08;8.93;;;3.42;;
21000;SDS011;10658;50.920;12.238;2023-05-27T10:13:09;4.25;;;2.22;;
21000;SDS011;10658;50.920;12.238;2023-05-27T10:17:10;5.80;;;2.05;;
21000;SDS011;10658;50.920;12.238;2023-05-27T10:21:17;4.30;;;2.70;;
21000;SDS011;10658;50.920;12.238;2023-05-27T10:25:34;7.85;;;2.47;;
21000;SDS011;10658;50.920;12.238;2023-05-27T10:29:36;7.95;;;2.83;;
21000;SDS011;10658;50.920;12.238;2023-05-27T10:33:44;6.63;;;2.53;;
21000;SDS011;10658;50.920;12.238;2023-05-27T10:37:47;5.38;;;2.40;;
21000;SDS011;10658;50.920;12.238;2023-05-27T10:41:51;5.32;;;2.70;;
21000;SDS011;10658;50.920;12.238;2023-05-27T10:46:01;4.10;;;1.85;;
21000;SDS011;10658;50.920;12.238;2023-05-27T10:50:14;5.63;;;2.75;;
21000;SDS011;10658;50.920;12.238;2023-05-27T10:54:15;4.38;;;2.90;;
21000;SDS011;10658;50.920;12.238;2023-05-27T10:58:16;6.97;;;2.72;;
21000;SDS011;10658;50.920;12.238;2023-05-27T11:02:18;6.65;;;2.10;;
21000;SDS011;10658;50.920;12.238;2023-05-27T11:06:20;4.07;;;2.45;;
21000;SDS011;10658;50.920;12.238;2023-05-27T11:10:21;4.72;;;2.67;;
21000;SDS011;10658;50.920;12.238;2023-05-27T11:14:22;6.25;;;2.40;;
21000;SDS011;10658;50.920;12.238;2023-05-27T11:18:24;6.25;;;2.60;;
21000;SDS011;10658;50.920;12.238;2023-05-27T11:22:24;5.18;;;2.55;;
21000;SDS011;10658;50.920;12.238;2023-05-27T11:26:25;5.65;;;2.22;;
21000;SDS011;10658;50.920;12.238;2023-05-27T11:30:27;3.58;;;2.20;;
21000;SDS011;10658;50.920;12.238;2023-05-27T11:34:27;6.18;;;2.40;;
21000;SDS011;10658;50.920;12.238;2023-05-27T11:38:28;5.65;;;2.90;;
21000;SDS011;10658;50.920;12.238;2023-05-27T11:42:29;4.88;;;2.25;;
21000;SDS011;10658;50.920;12.238;2023-05-27T11:46:37;9.98;;;2.78;;
21000;SDS011;10658;50.920;12.238;2023-05-27T11:50:39;8.60;;;3.05;;
21000;SDS011;10658;50.920;12.238;2023-05-27T11:54:40;4.68;;;2.17;;
21000;SDS011;10658;50.920;12.238;2023-05-27T11:58:41;6.05;;;2.25;;
21000;SDS011;10658;50.920;12.238;2023-05-27T12:02:42;6.05;;;2.22;;
21000;SDS011;10658;50.920;12.238;2023-05-27T12:06:44;7.55;;;2.70;;
21000;SDS011;10658;50.920;12.238;2023-05-27T12:10:46;4.38;;;2.10;;
21000;SDS011;10658;50.920;12.238;2023-05-27T12:14:50;3.45;;;2.30;;
21000;SDS011;10658;50.920;12.238;2023-05-27T12:18:51;4.85;;;2.40;;
21000;SDS011;10658;50.920;12.238;2023-05-27T12:22:53;5.53;;;2.45;;
21000;SDS011;10658;50.920;12.238;2023-05-27T12:26:54;6.78;;;2.63;;
21000;SDS011;10658;50.920;12.238;2023-05-27T12:30:55;5.05;;;2.33;;
21000;SDS011;10658;50.920;12.238;2023-05-27T12:34:56;4.90;;;2.20;;
21000;SDS011;10658;50.920;12.238;2023-05-27T12:38:56;5.55;;;2.63;;
21000;SDS011;10658;50.920;12.238;2023-05-27T12:42:57;3.65;;;2.33;;
21000;SDS011;10658;50.920;12.238;2023-05-27T12:46:58;5.30;;;2.25;;
21000;SDS011;10658;50.920;12.238;2023-05-27T12:50:59;6.80;;;2.38;;
21000;SDS011;10658;50.920;12.238;2023-05-27T12:55:00;5.80;;;2.50;;
21000;SDS011;10658;50.920;12.238;2023-05-27T12:59:00;5.55;;;2.60;;
21000;SDS011;10658;50.920;12.238;2023-05-27T13:03:01;4.82;;;2.47;;
21000;SDS011;10658;50.920;12.238;2023-05-27T13:07:02;5.53;;;2.92;;
21000;SDS011;10658;50.920;12.238;2023-05-27T13:11:03;4.05;;;2.42;;
21000;SDS011;10658;50.920;12.238;2023-05-27T13:15:04;5.43;;;2.92;;
21000;SDS011;10658;50.920;12.238;2023-05-27T13:19:06;5.72;;;2.60;;
21000;SDS011;10658;50.920;12.238;2023-05-27T13:23:07;7.35;;;3.05;;
21000;SDS011;10658;50.920;12.238;2023-05-27T13:27:08;4.47;;;2.15;;
21000;SDS011;10658;50.920;12.238;2023-05-27T13:31:09;4.85;;;2.20;;
21000;SDS011;10658;50.920;12.238;2023-05-27T13:35:10;3.72;;;2.50;;
21000;SDS011;10658;50.920;12.238;2023-05-27T13:39:11;3.15;;;2.15;;
21000;SDS011;10658;50.920;12.238;2023-05-27T13:43:13;6.05;;;2.40;;
21000;SDS011;10658;50.920;12.238;2023-05-27T13:47:14;4.78;;;2.85;;
21000;SDS011;10658;50.920;12.238;2023-05-27T13:51:15;7.10;;;2.92;;
21000;SDS011;10658;50.920;12.238;2023-05-27T13:55:16;4.07;;;2.75;;
21000;SDS011;10658;50.920;12.238;2023-05-27T13:59:17;5.55;;;2.70;;
21000;SDS011;10658;50.920;12.238;2023-05-27T14:03:18;4.30;;;2.25;;
21000;SDS011;10658;50.920;12.238;2023-05-27T14:07:19;10.30;;;3.53;;
21000;SDS011;10658;50.920;12.238;2023-05-27T14:11:22;6.90;;;2.70;;
21000;SDS011;10658;50.920;12.238;2023-05-27T14:15:22;6.47;;;2.63;;
21000;SDS011;10658;50.920;12.238;2023-05-27T14:19:27;5.32;;;2.22;;
21000;SDS011;10658;50.920;12.238;2023-05-27T14:23:28;4.78;;;2.55;;
21000;SDS011;10658;50.920;12.238;2023-05-27T14:27:29;4.95;;;2.70;;
21000;SDS011;10658;50.920;12.238;2023-05-27T14:31:30;3.58;;;2.42;;
21000;SDS011;10658;50.920;12.238;2023-05-27T14:35:31;6.05;;;2.33;;
21000;SDS011;10658;50.920;12.238;2023-05-27T14:39:31;6.25;;;2.35;;
21000;SDS011;10658;50.920;12.238;2023-05-27T14:43:32;4.45;;;2.38;;
21000;SDS011;10658;50.920;12.238;2023-05-27T14:47:33;6.53;;;2.72;;
21000;SDS011;10658;50.920;12.238;2023-05-27T14:51:34;5.38;;;2.50;;
21000;SDS011;10658;50.920;12.238;2023-05-27T14:55:35;6.68;;;2.20;;
21000;SDS011;10658;50.920;12.238;2023-05-27T14:59:35;5.43;;;2.67;;
21000;SDS011;10658;50.920;12.238;2023-05-27T15:03:36;7.07;;;2.35;;
21000;SDS011;10658;50.920;12.238;2023-05-27T15:07:37;3.70;;;2.08;;
21000;SDS011;10658;50.920;12.238;2023-05-27T15:11:39;6.47;;;3.53;;
21000;SDS011;10658;50.920;12.238;2023-05-27T15:15:40;4.15;;;3.28;;
21000;SDS011;10658;50.920;12.238;2023-05-27T15:19:43;3.78;;;2.78;;
21000;SDS011;10658;50.920;12.238;2023-05-27T15:23:44;5.68;;;2.40;;
21000;SDS011;10658;50.920;12.238;2023-05-27T15:27:45;6.75;;;2.35;;
21000;SDS011;10658;50.920;12.238;2023-05-27T15:31:45;5.93;;;2.60;;
21000;SDS011;10658;50.920;12.238;2023-05-27T15:35:47;4.03;;;2.10;;
21000;SDS011;10658;50.920;12.238;2023-05-27T15:39:48;4.95;;;2.17;;
21000;SDS011;10658;50.920;12.238;2023-05-27T15:43:49;7.78;;;2.58;;
21000;SDS011;10658;50.920;12.238;2023-05-27T15:47:50;5.47;;;2.40;;
21000;SDS011;10658;50.920;12.238;2023-05-27T15:51:54;3.53;;;2.15;;
21000;SDS011;10658;50.920;12.238;2023-05-27T15:55:54;4.50;;;2.47;;
21000;SDS011;10658;50.920;12.238;2023-05-27T15:59:55;5.32;;;2.38;;
21000;SDS011;10658;50.920;12.238;2023-05-27T16:03:56;6.65;;;2.63;;
21000;SDS011;10658;50.920;12.238;2023-05-27T16:07:56;9.18;;;2.42;;
21000;SDS011;10658;50.920;12.238;2023-05-27T16:11:57;6.10;;;2.25;;
21000;SDS011;10658;50.920;12.238;2023-05-27T16:15:58;8.75;;;4.65;;
21000;SDS011;10658;50.920;12.238;2023-05-27T16:19:59;5.97;;;2.58;;
21000;SDS011;10658;50.920;12.238;2023-05-27T16:24:00;3.65;;;2.40;;
21000;SDS011;10658;50.920;12.238;2023-05-27T16:28:01;4.40;;;2.30;;
21000;SDS011;10658;50.920;12.238;2023-05-27T16:32:02;5.78;;;2.42;;
21000;SDS011;10658;50.920;12.238;2023-05-27T16:36:02;8.98;;;2.63;;
21000;SDS011;10658;50.920;12.238;2023-05-27T16:40:03;8.95;;;2.83;;
21000;SDS011;10658;50.920;12.238;2023-05-27T16:44:05;6.10;;;2.25;;
21000;SDS011;10658;50.920;12.238;2023-05-27T16:48:05;5.82;;;2.25;;
21000;SDS011;10658;50.920;12.238;2023-05-27T16:52:07;6.75;;;2.40;;
21000;SDS011;10658;50.920;12.238;2023-05-27T16:56:08;3.95;;;2.20;;
21000;SDS011;10658;50.920;12.238;2023-05-27T17:00:09;3.30;;;2.03;;
21000;SDS011;10658;50.920;12.238;2023-05-27T17:04:11;3.75;;;2.00;;
21000;SDS011;10658;50.920;12.238;2023-05-27T17:08:11;3.67;;;2.28;;
21000;SDS011;10658;50.920;12.238;2023-05-27T17:12:12;6.25;;;2.67;;
21000;SDS011;10658;50.920;12.238;2023-05-27T17:16:13;2.17;;;1.75;;
21000;SDS011;10658;50.920;12.238;2023-05-27T17:20:13;3.70;;;2.40;;
21000;SDS011;10658;50.920;12.238;2023-05-27T17:24:18;4.97;;;1.90;;
21000;SDS011;10658;50.920;12.238;2023-05-27T17:28:20;4.15;;;2.17;;
21000;SDS011;10658;50.920;12.238;2023-05-27T17:32:21;2.55;;;2.00;;
21000;SDS011;10658;50.920;12.238;2023-05-27T17:36:21;3.75;;;2.03;;
21000;SDS011;10658;50.920;12.238;2023-05-27T17:40:22;5.00;;;2.40;;
21000;SDS011;10658;50.920;12.238;2023-05-27T17:44:23;4.93;;;2.03;;
21000;SDS011;10658;50.920;12.238;2023-05-27T17:48:24;5.97;;;2.10;;
21000;SDS011;10658;50.920;12.238;2023-05-27T17:52:24;6.68;;;2.58;;
21000;SDS011;10658;50.920;12.238;2023-05-27T17:56:25;4.70;;;2.00;;
21000;SDS011;10658;50.920;12.238;2023-05-27T18:00:26;4.05;;;1.80;;
21000;SDS011;10658;50.920;12.238;2023-05-27T18:04:27;7.22;;;2.00;;
21000;SDS011;10658;50.920;12.238;2023-05-27T18:08:27;3.35;;;2.05;;
21000;SDS011;10658;50.920;12.238;2023-05-27T18:12:28;4.43;;;1.70;;
21000;SDS011;10658;50.920;12.238;2023-05-27T18:16:29;4.03;;;2.22;;
21000;SDS011;10658;50.920;12.238;2023-05-27T18:20:30;7.63;;;2.83;;
21000;SDS011;10658;50.920;12.238;2023-05-27T18:24:32;3.20;;;2.45;;
21000;SDS011;10658;50.920;12.238;2023-05-27T18:28:33;5.53;;;2.90;;
21000;SDS011;10658;50.920;12.238;2023-05-27T18:32:46;5.00;;;1.67;;
21000;SDS011;10658;50.920;12.238;2023-05-27T18:36:48;3.60;;;2.17;;
21000;SDS011;10658;50.920;12.238;2023-05-27T18:40:49;2.40;;;1.65;;
21000;SDS011;10658;50.920;12.238;2023-05-27T18:44:50;3.05;;;2.15;;
21000;SDS011;10658;50.920;12.238;2023-05-27T18:48:51;2.92;;;1.70;;
21000;SDS011;10658;50.920;12.238;2023-05-27T18:52:52;3.03;;;2.05;;
21000;SDS011;10658;50.920;12.238;2023-05-27T18:56:52;3.88;;;2.10;;
21000;SDS011;10658;50.920;12.238;2023-05-27T19:00:53;5.30;;;1.92;;
21000;SDS011;10658;50.920;12.238;2023-05-27T19:04:54;2.97;;;2.13;;
21000;SDS011;10658;50.920;12.238;2023-05-27T19:08:55;5.78;;;1.98;;
21000;SDS011;10658;50.920;12.238;2023-05-27T19:12:57;3.20;;;2.20;;
21000;SDS011;10658;50.920;12.238;2023-05-27T19:16:58;15.82;;;2.70;;
21000;SDS011;10658;50.920;12.238;2023-05-27T19:20:58;4.15;;;1.90;;
21000;SDS011;10658;50.920;12.238;2023-05-27T19:24:59;2.58;;;1.83;;
21000;SDS011;10658;50.920;12.238;2023-05-27T19:29:00;3.30;;;2.20;;
21000;SDS011;10658;50.920;12.238;2023-05-27T19:33:01;4.53;;;2.25;;
21000;SDS011;10658;50.920;12.238;2023-05-27T19:37:01;3.13;;;1.98;;
21000;SDS011;10658;50.920;12.238;2023-05-27T19:41:02;4.53;;;2.30;;
21000;SDS011;10658;50.920;12.238;2023-05-27T19:45:03;5.10;;;2.08;;
21000;SDS011;10658;50.920;12.238;2023-05-27T19:49:04;3.42;;;1.98;;
21000;SDS011;10658;50.920;12.238;2023-05-27T19:53:05;4.57;;;2.10;;
21000;SDS011;10658;50.920;12.238;2023-05-27T19:57:06;4.05;;;1.83;;
21000;SDS011;10658;50.920;12.238;2023-05-27T20:01:07;2.63;;;1.95;;
21000;SDS011;10658;50.920;12.238;2023-05-27T20:05:08;4.95;;;2.25;;
21000;SDS011;10658;50.920;12.238;2023-05-27T20:09:09;5.32;;;2.25;;
21000;SDS011;10658;50.920;12.238;2023-05-27T20:13:10;3.50;;;2.00;;
21000;SDS011;10658;50.920;12.238;2023-05-27T20:17:11;2.60;;;1.75;;
21000;SDS011;10658;50.920;12.238;2023-05-27T20:21:12;3.03;;;2.17;;
21000;SDS011;10658;50.920;12.238;2023-05-27T20:25:12;4.57;;;2.28;;
21000;SDS011;10658;50.920;12.238;2023-05-27T20:29:13;3.95;;;2.10;;
21000;SDS011;10658;50.920;12.238;2023-05-27T20:33:14;5.07;;;1.83;;
21000;SDS011;10658;50.920;12.238;2023-05-27T20:37:15;5.55;;;2.42;;
21000;SDS011;10658;50.920;12.238;2023-05-27T20:41:15;4.28;;;1.92;;
21000;SDS011;10658;50.920;12.238;2023-05-27T20:45:16;2.53;;;1.90;;
21000;SDS011;10658;50.920;12.238;2023-05-27T20:49:17;2.08;;;1.67;;
21000;SDS011;10658;50.920;12.238;2023-05-27T20:53:18;2.75;;;2.03;;
21000;SDS011;10658;50.920;12.238;2023-05-27T20:57:19;1.98;;;1.77;;
21000;SDS011;10658;50.920;12.238;2023-05-27T21:01:19;5.28;;;2.35;;
21000;SDS011;10658;50.920;12.238;2023-05-27T21:05:20;2.33;;;2.13;;
21000;SDS011;10658;50.920;12.238;2023-05-27T21:09:21;2.83;;;1.95;;
21000;SDS011;10658;50.920;12.238;2023-05-27T21:13:22;3.78;;;2.13;;
21000;SDS011;10658;50.920;12.238;2023-05-27T21:17:22;2.30;;;2.05;;
21000;SDS011;10658;50.920;12.238;2023-05-27T21:21:23;2.95;;;1.88;;
21000;SDS011;10658;50.920;12.238;2023-05-27T21:25:24;3.25;;;2.10;;
21000;SDS011;10658;50.920;12.238;2023-05-27T21:29:25;3.00;;;1.70;;
21000;SDS011;10658;50.920;12.238;2023-05-27T21:33:25;2.10;;;1.67;;
21000;SDS011;10658;50.920;12.238;2023-05-27T21:37:26;4.43;;;1.98;;
21000;SDS011;10658;50.920;12.238;2023-05-27T21:41:27;3.05;;;1.65;;
21000;SDS011;10658;50.920;12.238;2023-05-27T21:45:27;2.35;;;1.67;;
21000;SDS011;10658;50.920;12.238;2023-05-27T21:49:28;2.28;;;2.05;;
21000;SDS011;10658;50.920;12.238;2023-05-27T21:53:29;2.70;;;1.75;;
21000;SDS011;10658;50.920;12.238;2023-05-27T21:57:30;2.03;;;1.63;;
21000;SDS011;10658;50.920;12.238;2023-05-27T22:01:30;2.67;;;1.63;;
21000;SDS011;10658;50.920;12.238;2023-05-27T22:05:31;5.95;;;2.15;;
21000;SDS011;10658;50.920;12.238;2023-05-27T22:09:33;4.32;;;2.33;;
21000;SDS011;10658;50.920;12.238;2023-05-27T22:13:34;5.22;;;2.17;;
21000;SDS011;10658;50.920;12.238;2023-05-27T22:17:35;3.97;;;2.22;;
21000;SDS011;10658;50.920;12.238;2023-05-27T22:21:36;2.30;;;1.88;;
21000;SDS011;10658;50.920;12.238;2023-05-27T22:25:37;3.08;;;2.20;;
21000;SDS011;10658;50.920;12.238;2023-05-27T22:29:38;3.38;;;1.98;;
21000;SDS011;10658;50.920;12.238;2023-05-27T22:33:39;3.38;;;2.05;;
21000;SDS011;10658;50.920;12.238;2023-05-27T22:37:39;2.58;;;1.98;;
21000;SDS011;10658;50.920;12.238;2023-05-27T22:41:40;3.63;;;1.92;;
21000;SDS011;10658;50.920;12.238;2023-05-27T22:45:41;2.55;;;2.33;;
21000;SDS011;10658;50.920;12.238;2023-05-27T22:49:42;2.65;;;1.90;;
21000;SDS011;10658;50.920;12.238;2023-05-27T22:53:42;3.38;;;2.20;;
21000;SDS011;10658;50.920;12.238;2023-05-27T22:57:43;2.75;;;2.17;;
21000;SDS011;10658;50.920;12.238;2023-05-27T23:01:44;2.83;;;1.83;;
21000;SDS011;10658;50.920;12.238;2023-05-27T23:05:45;4.25;;;2.13;;
21000;SDS011;10658;50.920;12.238;2023-05-27T23:09:46;3.15;;;2.03;;
21000;SDS011;10658;50.920;12.238;2023-05-27T23:13:46;3.08;;;2.13;;
21000;SDS011;10658;50.920;12.238;2023-05-27T23:17:47;3.25;;;2.10;;
21000;SDS011;10658;50.920;12.238;2023-05-27T23:21:48;2.05;;;1.73;;
21000;SDS011;10658;50.920;12.238;2023-05-27T23:25:48;2.22;;;2.03;;
21000;SDS011;10658;50.920;12.238;2023-05-27T23:29:49;2.60;;;1.77;;
21000;SDS011;10658;50.920;12.238;2023-05-27T23:33:50;2.75;;;2.25;;
21000;SDS011;10658;50.920;12.238;2023-05-27T23:37:51;3.08;;;1.95;;
21000;SDS011;10658;50.920;12.238;2023-05-27T23:41:52;3.67;;;2.25;;
21000;SDS011;10658;50.920;12.238;2023-05-27T23:45:54;4.43;;;2.28;;
21000;SDS011;10658;50.920;12.238;2023-05-27T23:49:54;4.03;;;2.22;;
21000;SDS011;10658;50.920;12.238;2023-05-27T23:53:55;3.70;;;1.98;;